sensor_id;sensor_type;location;lat;lon;timestamp;P1;durP1;ratioP1;P2;durP2;ratioP2
52512;SDS011;38422;53.172;6.974;2022-08-19T00:00:08;2.75;;;2.33;;
52512;SDS011;38422;53.172;6.974;2022-08-19T00:02:35;4.57;;;2.53;;
52512;SDS011;38422;53.172;6.974;2022-08-19T00:05:01;4.45;;;2.45;;
52512;SDS011;38422;53.172;6.974;2022-08-19T00:07:27;4.60;;;2.50;;
52512;SDS011;38422;53.172;6.974;2022-08-19T00:09:53;4.20;;;2.60;;
52512;SDS011;38422;53.172;6.974;2022-08-19T00:12:19;4.35;;;2.60;;
52512;SDS011;38422;53.172;6.974;2022-08-19T00:14:45;3.30;;;2.67;;
52512;SDS011;38422;53.172;6.974;2022-08-19T00:17:10;4.38;;;2.40;;
52512;SDS011;38422;53.172;6.974;2022-08-19T00:19:36;4.15;;;2.72;;
52512;SDS011;38422;53.172;6.974;2022-08-19T00:22:03;3.75;;;2.85;;
52512;SDS011;38422;53.172;6.974;2022-08-19T00:26:55;5.10;;;2.78;;
52512;SDS011;38422;53.172;6.974;2022-08-19T00:29:22;4.70;;;2.83;;
52512;SDS011;38422;53.172;6.974;2022-08-19T00:31:50;4.03;;;2.63;;
52512;SDS011;38422;53.172;6.974;2022-08-19T00:34:19;4.43;;;2.80;;
52512;SDS011;38422;53.172;6.974;2022-08-19T00:36:45;3.73;;;2.80;;
52512;SDS011;38422;53.172;6.974;2022-08-19T00:39:11;3.05;;;2.58;;
52512;SDS011;38422;53.172;6.974;2022-08-19T00:41:38;4.82;;;2.72;;
52512;SDS011;38422;53.172;6.974;2022-08-19T00:44:06;4.05;;;2.70;;
52512;SDS011;38422;53.172;6.974;2022-08-19T00:46:41;3.63;;;3.00;;
52512;SDS011;38422;53.172;6.974;2022-08-19T00:49:11;4.53;;;2.97;;
52512;SDS011;38422;53.172;6.974;2022-08-19T00:51:46;4.05;;;2.90;;
52512;SDS011;38422;53.172;6.974;2022-08-19T00:54:15;4.28;;;3.05;;
52512;SDS011;38422;53.172;6.974;2022-08-19T00:56:41;3.35;;;2.50;;
52512;SDS011;38422;53.172;6.974;2022-08-19T00:59:08;3.65;;;2.65;;
52512;SDS011;38422;53.172;6.974;2022-08-19T01:01:38;4.18;;;2.95;;
52512;SDS011;38422;53.172;6.974;2022-08-19T01:04:06;5.07;;;3.08;;
52512;SDS011;38422;53.172;6.974;2022-08-19T01:06:31;4.55;;;3.00;;
52512;SDS011;38422;53.172;6.974;2022-08-19T01:08:58;4.05;;;2.83;;
52512;SDS011;38422;53.172;6.974;2022-08-19T01:11:25;4.82;;;3.22;;
52512;SDS011;38422;53.172;6.974;2022-08-19T01:13:56;4.50;;;2.67;;
52512;SDS011;38422;53.172;6.974;2022-08-19T01:16:22;4.78;;;2.88;;
52512;SDS011;38422;53.172;6.974;2022-08-19T01:18:50;6.32;;;3.00;;
52512;SDS011;38422;53.172;6.974;2022-08-19T01:21:31;6.13;;;3.47;;
52512;SDS011;38422;53.172;6.974;2022-08-19T01:24:21;3.97;;;2.83;;
52512;SDS011;38422;53.172;6.974;2022-08-19T01:26:47;3.80;;;2.70;;
52512;SDS011;38422;53.172;6.974;2022-08-19T01:29:13;3.50;;;3.03;;
52512;SDS011;38422;53.172;6.974;2022-08-19T01:31:39;4.28;;;3.10;;
52512;SDS011;38422;53.172;6.974;2022-08-19T01:34:05;5.70;;;3.13;;
52512;SDS011;38422;53.172;6.974;2022-08-19T01:36:34;5.93;;;3.28;;
52512;SDS011;38422;53.172;6.974;2022-08-19T01:39:04;4.40;;;3.05;;
52512;SDS011;38422;53.172;6.974;2022-08-19T01:41:33;6.95;;;3.45;;
52512;SDS011;38422;53.172;6.974;2022-08-19T01:43:59;4.97;;;3.20;;
52512;SDS011;38422;53.172;6.974;2022-08-19T01:46:28;4.93;;;2.90;;
52512;SDS011;38422;53.172;6.974;2022-08-19T01:48:54;5.30;;;3.10;;
52512;SDS011;38422;53.172;6.974;2022-08-19T01:51:19;8.20;;;3.38;;
52512;SDS011;38422;53.172;6.974;2022-08-19T01:53:48;4.30;;;3.10;;
52512;SDS011;38422;53.172;6.974;2022-08-19T01:56:16;6.05;;;2.92;;
52512;SDS011;38422;53.172;6.974;2022-08-19T01:58:49;7.65;;;3.50;;
52512;SDS011;38422;53.172;6.974;2022-08-19T02:01:25;4.43;;;3.33;;
52512;SDS011;38422;53.172;6.974;2022-08-19T02:03:50;5.13;;;3.03;;
52512;SDS011;38422;53.172;6.974;2022-08-19T02:06:18;6.28;;;3.50;;
52512;SDS011;38422;53.172;6.974;2022-08-19T02:08:44;4.72;;;3.50;;
52512;SDS011;38422;53.172;6.974;2022-08-19T02:11:18;5.07;;;3.85;;
52512;SDS011;38422;53.172;6.974;2022-08-19T02:13:46;4.57;;;3.80;;
52512;SDS011;38422;53.172;6.974;2022-08-19T02:16:14;6.10;;;4.13;;
52512;SDS011;38422;53.172;6.974;2022-08-19T02:18:41;4.53;;;3.90;;
52512;SDS011;38422;53.172;6.974;2022-08-19T02:21:06;5.22;;;3.83;;
52512;SDS011;38422;53.172;6.974;2022-08-19T02:23:32;6.43;;;3.85;;
52512;SDS011;38422;53.172;6.974;2022-08-19T02:25:58;5.68;;;3.92;;
52512;SDS011;38422;53.172;6.974;2022-08-19T02:28:23;6.72;;;4.38;;
52512;SDS011;38422;53.172;6.974;2022-08-19T02:30:49;6.50;;;4.60;;
52512;SDS011;38422;53.172;6.974;2022-08-19T02:33:15;5.95;;;4.00;;
52512;SDS011;38422;53.172;6.974;2022-08-19T02:35:42;5.65;;;3.88;;
52512;SDS011;38422;53.172;6.974;2022-08-19T02:38:09;4.88;;;4.38;;
52512;SDS011;38422;53.172;6.974;2022-08-19T02:41:00;5.70;;;4.50;;
52512;SDS011;38422;53.172;6.974;2022-08-19T02:43:28;6.53;;;4.97;;
52512;SDS011;38422;53.172;6.974;2022-08-19T02:45:55;5.95;;;4.68;;
52512;SDS011;38422;53.172;6.974;2022-08-19T02:48:22;6.95;;;5.00;;
52512;SDS011;38422;53.172;6.974;2022-08-19T02:50:51;6.43;;;5.07;;
52512;SDS011;38422;53.172;6.974;2022-08-19T02:53:20;7.65;;;5.28;;
52512;SDS011;38422;53.172;6.974;2022-08-19T02:55:48;7.13;;;5.68;;
52512;SDS011;38422;53.172;6.974;2022-08-19T02:58:15;8.13;;;5.40;;
52512;SDS011;38422;53.172;6.974;2022-08-19T03:00:43;6.80;;;6.10;;
52512;SDS011;38422;53.172;6.974;2022-08-19T03:03:10;7.05;;;5.63;;
52512;SDS011;38422;53.172;6.974;2022-08-19T03:05:36;6.90;;;5.70;;
52512;SDS011;38422;53.172;6.974;2022-08-19T03:08:02;7.13;;;5.70;;
52512;SDS011;38422;53.172;6.974;2022-08-19T03:10:30;7.47;;;6.00;;
52512;SDS011;38422;53.172;6.974;2022-08-19T03:12:57;7.05;;;5.38;;
52512;SDS011;38422;53.172;6.974;2022-08-19T03:15:22;7.13;;;5.63;;
52512;SDS011;38422;53.172;6.974;2022-08-19T03:17:48;7.72;;;5.30;;
52512;SDS011;38422;53.172;6.974;2022-08-19T03:20:14;6.50;;;5.47;;
52512;SDS011;38422;53.172;6.974;2022-08-19T03:22:39;7.60;;;5.70;;
52512;SDS011;38422;53.172;6.974;2022-08-19T03:25:05;8.73;;;6.20;;
52512;SDS011;38422;53.172;6.974;2022-08-19T03:27:31;8.10;;;5.47;;
52512;SDS011;38422;53.172;6.974;2022-08-19T03:29:56;8.27;;;5.43;;
52512;SDS011;38422;53.172;6.974;2022-08-19T03:32:22;6.22;;;5.63;;
52512;SDS011;38422;53.172;6.974;2022-08-19T03:34:48;7.85;;;5.95;;
52512;SDS011;38422;53.172;6.974;2022-08-19T03:37:14;7.23;;;5.53;;
52512;SDS011;38422;53.172;6.974;2022-08-19T03:39:40;7.70;;;6.07;;
52512;SDS011;38422;53.172;6.974;2022-08-19T03:42:07;7.63;;;6.03;;
52512;SDS011;38422;53.172;6.974;2022-08-19T03:44:33;7.03;;;5.97;;
52512;SDS011;38422;53.172;6.974;2022-08-19T03:47:01;6.85;;;5.55;;
52512;SDS011;38422;53.172;6.974;2022-08-19T03:49:28;6.00;;;5.40;;
52512;SDS011;38422;53.172;6.974;2022-08-19T03:51:56;7.30;;;5.10;;
52512;SDS011;38422;53.172;6.974;2022-08-19T03:54:25;5.88;;;4.63;;
52512;SDS011;38422;53.172;6.974;2022-08-19T03:56:53;4.72;;;3.70;;
52512;SDS011;38422;53.172;6.974;2022-08-19T03:59:21;5.90;;;4.30;;
52512;SDS011;38422;53.172;6.974;2022-08-19T04:01:52;4.65;;;4.00;;
52512;SDS011;38422;53.172;6.974;2022-08-19T04:04:20;17.08;;;4.47;;
52512;SDS011;38422;53.172;6.974;2022-08-19T04:06:47;5.45;;;4.57;;
52512;SDS011;38422;53.172;6.974;2022-08-19T04:09:13;4.80;;;4.10;;
52512;SDS011;38422;53.172;6.974;2022-08-19T04:11:43;5.55;;;4.40;;
52512;SDS011;38422;53.172;6.974;2022-08-19T04:14:12;7.20;;;4.95;;
52512;SDS011;38422;53.172;6.974;2022-08-19T04:16:42;5.75;;;4.78;;
52512;SDS011;38422;53.172;6.974;2022-08-19T04:19:09;5.72;;;4.80;;
52512;SDS011;38422;53.172;6.974;2022-08-19T04:21:36;6.10;;;5.30;;
52512;SDS011;38422;53.172;6.974;2022-08-19T04:24:01;6.72;;;5.47;;
52512;SDS011;38422;53.172;6.974;2022-08-19T04:26:30;6.93;;;5.50;;
52512;SDS011;38422;53.172;6.974;2022-08-19T04:28:58;7.05;;;5.70;;
52512;SDS011;38422;53.172;6.974;2022-08-19T04:33:52;6.88;;;5.35;;
52512;SDS011;38422;53.172;6.974;2022-08-19T04:36:23;7.20;;;5.28;;
52512;SDS011;38422;53.172;6.974;2022-08-19T04:38:53;6.63;;;5.38;;
52512;SDS011;38422;53.172;6.974;2022-08-19T04:41:20;4.65;;;3.85;;
52512;SDS011;38422;53.172;6.974;2022-08-19T04:44:04;6.90;;;4.00;;
52512;SDS011;38422;53.172;6.974;2022-08-19T04:46:30;5.05;;;3.90;;
52512;SDS011;38422;53.172;6.974;2022-08-19T04:48:57;5.83;;;4.03;;
52512;SDS011;38422;53.172;6.974;2022-08-19T04:51:23;5.22;;;3.83;;
52512;SDS011;38422;53.172;6.974;2022-08-19T04:53:49;5.43;;;3.78;;
52512;SDS011;38422;53.172;6.974;2022-08-19T04:56:16;4.82;;;3.47;;
52512;SDS011;38422;53.172;6.974;2022-08-19T04:58:44;5.68;;;3.92;;
52512;SDS011;38422;53.172;6.974;2022-08-19T05:01:15;4.90;;;3.70;;
52512;SDS011;38422;53.172;6.974;2022-08-19T05:03:44;4.95;;;3.40;;
52512;SDS011;38422;53.172;6.974;2022-08-19T05:06:11;5.03;;;3.75;;
52512;SDS011;38422;53.172;6.974;2022-08-19T05:08:38;4.90;;;3.40;;
52512;SDS011;38422;53.172;6.974;2022-08-19T05:11:29;5.57;;;3.80;;
52512;SDS011;38422;53.172;6.974;2022-08-19T05:13:55;5.73;;;4.07;;
52512;SDS011;38422;53.172;6.974;2022-08-19T05:16:22;5.30;;;4.20;;
52512;SDS011;38422;53.172;6.974;2022-08-19T05:21:33;6.43;;;4.93;;
52512;SDS011;38422;53.172;6.974;2022-08-19T05:24:19;6.00;;;4.93;;
52512;SDS011;38422;53.172;6.974;2022-08-19T05:26:46;5.47;;;4.78;;
52512;SDS011;38422;53.172;6.974;2022-08-19T05:29:14;6.90;;;5.53;;
52512;SDS011;38422;53.172;6.974;2022-08-19T05:31:41;6.70;;;5.60;;
52512;SDS011;38422;53.172;6.974;2022-08-19T05:34:08;6.88;;;5.70;;
52512;SDS011;38422;53.172;6.974;2022-08-19T05:36:35;6.78;;;5.80;;
52512;SDS011;38422;53.172;6.974;2022-08-19T05:39:05;7.75;;;5.85;;
52512;SDS011;38422;53.172;6.974;2022-08-19T05:41:31;7.38;;;5.30;;
52512;SDS011;38422;53.172;6.974;2022-08-19T05:43:58;8.88;;;6.00;;
52512;SDS011;38422;53.172;6.974;2022-08-19T05:46:26;7.13;;;5.38;;
52512;SDS011;38422;53.172;6.974;2022-08-19T05:48:52;8.35;;;5.68;;
52512;SDS011;38422;53.172;6.974;2022-08-19T05:51:21;8.10;;;6.28;;
52512;SDS011;38422;53.172;6.974;2022-08-19T05:53:47;8.97;;;6.10;;
52512;SDS011;38422;53.172;6.974;2022-08-19T05:56:14;7.63;;;6.28;;
52512;SDS011;38422;53.172;6.974;2022-08-19T05:58:41;8.98;;;6.97;;
52512;SDS011;38422;53.172;6.974;2022-08-19T06:01:12;9.05;;;6.32;;
52512;SDS011;38422;53.172;6.974;2022-08-19T06:03:43;8.05;;;6.57;;
52512;SDS011;38422;53.172;6.974;2022-08-19T06:06:09;8.50;;;6.83;;
52512;SDS011;38422;53.172;6.974;2022-08-19T06:08:37;9.45;;;6.53;;
52512;SDS011;38422;53.172;6.974;2022-08-19T06:11:31;9.48;;;7.38;;
52512;SDS011;38422;53.172;6.974;2022-08-19T06:14:06;8.95;;;6.88;;
52512;SDS011;38422;53.172;6.974;2022-08-19T06:16:37;7.97;;;6.60;;
52512;SDS011;38422;53.172;6.974;2022-08-19T06:19:05;8.43;;;7.30;;
52512;SDS011;38422;53.172;6.974;2022-08-19T06:21:33;8.85;;;7.28;;
52512;SDS011;38422;53.172;6.974;2022-08-19T06:24:02;8.10;;;6.85;;
52512;SDS011;38422;53.172;6.974;2022-08-19T06:26:29;10.20;;;7.85;;
52512;SDS011;38422;53.172;6.974;2022-08-19T06:28:56;10.50;;;7.75;;
52512;SDS011;38422;53.172;6.974;2022-08-19T06:31:26;8.40;;;7.07;;
52512;SDS011;38422;53.172;6.974;2022-08-19T06:33:53;9.32;;;7.63;;
52512;SDS011;38422;53.172;6.974;2022-08-19T06:38:58;9.70;;;7.50;;
52512;SDS011;38422;53.172;6.974;2022-08-19T06:41:25;8.93;;;7.72;;
52512;SDS011;38422;53.172;6.974;2022-08-19T06:43:52;9.30;;;6.97;;
52512;SDS011;38422;53.172;6.974;2022-08-19T06:46:18;10.82;;;7.93;;
52512;SDS011;38422;53.172;6.974;2022-08-19T06:48:45;11.77;;;7.78;;
52512;SDS011;38422;53.172;6.974;2022-08-19T06:51:11;9.17;;;7.70;;
52512;SDS011;38422;53.172;6.974;2022-08-19T06:53:40;10.32;;;8.27;;
52512;SDS011;38422;53.172;6.974;2022-08-19T06:56:11;8.70;;;7.30;;
52512;SDS011;38422;53.172;6.974;2022-08-19T06:58:41;8.77;;;7.45;;
52512;SDS011;38422;53.172;6.974;2022-08-19T07:01:07;8.20;;;6.97;;
52512;SDS011;38422;53.172;6.974;2022-08-19T07:03:34;9.02;;;6.70;;
52512;SDS011;38422;53.172;6.974;2022-08-19T07:06:04;8.30;;;7.10;;
52512;SDS011;38422;53.172;6.974;2022-08-19T07:08:36;10.60;;;7.13;;
52512;SDS011;38422;53.172;6.974;2022-08-19T07:11:08;8.18;;;6.38;;
52512;SDS011;38422;53.172;6.974;2022-08-19T07:13:35;9.05;;;6.65;;
52512;SDS011;38422;53.172;6.974;2022-08-19T07:16:12;10.82;;;6.70;;
52512;SDS011;38422;53.172;6.974;2022-08-19T07:18:40;9.40;;;6.93;;
52512;SDS011;38422;53.172;6.974;2022-08-19T07:21:08;10.10;;;6.90;;
52512;SDS011;38422;53.172;6.974;2022-08-19T07:23:38;9.80;;;6.97;;
52512;SDS011;38422;53.172;6.974;2022-08-19T07:26:08;8.13;;;6.63;;
52512;SDS011;38422;53.172;6.974;2022-08-19T07:28:46;8.70;;;7.20;;
52512;SDS011;38422;53.172;6.974;2022-08-19T07:31:14;9.32;;;7.88;;
52512;SDS011;38422;53.172;6.974;2022-08-19T07:33:43;9.30;;;7.20;;
52512;SDS011;38422;53.172;6.974;2022-08-19T07:36:11;9.75;;;6.72;;
52512;SDS011;38422;53.172;6.974;2022-08-19T07:38:42;8.35;;;6.63;;
52512;SDS011;38422;53.172;6.974;2022-08-19T07:41:10;8.77;;;6.70;;
52512;SDS011;38422;53.172;6.974;2022-08-19T07:43:38;9.20;;;6.38;;
52512;SDS011;38422;53.172;6.974;2022-08-19T07:46:05;8.60;;;6.20;;
52512;SDS011;38422;53.172;6.974;2022-08-19T07:48:31;7.95;;;6.53;;
52512;SDS011;38422;53.172;6.974;2022-08-19T07:50:58;8.60;;;7.03;;
52512;SDS011;38422;53.172;6.974;2022-08-19T07:53:29;8.18;;;5.60;;
52512;SDS011;38422;53.172;6.974;2022-08-19T07:55:57;9.23;;;6.80;;
52512;SDS011;38422;53.172;6.974;2022-08-19T07:58:29;8.20;;;6.38;;
52512;SDS011;38422;53.172;6.974;2022-08-19T08:00:57;8.65;;;6.18;;
52512;SDS011;38422;53.172;6.974;2022-08-19T08:03:23;8.43;;;6.28;;
52512;SDS011;38422;53.172;6.974;2022-08-19T08:06:09;9.70;;;6.38;;
52512;SDS011;38422;53.172;6.974;2022-08-19T08:08:54;9.45;;;6.20;;
52512;SDS011;38422;53.172;6.974;2022-08-19T08:11:39;7.82;;;6.00;;
52512;SDS011;38422;53.172;6.974;2022-08-19T08:16:58;9.43;;;6.15;;
52512;SDS011;38422;53.172;6.974;2022-08-19T08:19:25;6.97;;;5.30;;
52512;SDS011;38422;53.172;6.974;2022-08-19T08:24:21;7.32;;;6.10;;
52512;SDS011;38422;53.172;6.974;2022-08-19T08:26:47;7.85;;;6.53;;
52512;SDS011;38422;53.172;6.974;2022-08-19T08:29:13;9.55;;;6.10;;
52512;SDS011;38422;53.172;6.974;2022-08-19T08:31:41;8.27;;;5.95;;
52512;SDS011;38422;53.172;6.974;2022-08-19T08:34:08;7.97;;;6.38;;
52512;SDS011;38422;53.172;6.974;2022-08-19T08:36:38;6.63;;;5.45;;
52512;SDS011;38422;53.172;6.974;2022-08-19T08:39:14;7.20;;;5.70;;
52512;SDS011;38422;53.172;6.974;2022-08-19T08:47:06;7.80;;;6.05;;
52512;SDS011;38422;53.172;6.974;2022-08-19T08:49:41;8.98;;;6.32;;
52512;SDS011;38422;53.172;6.974;2022-08-19T08:52:20;7.82;;;5.30;;
52512;SDS011;38422;53.172;6.974;2022-08-19T08:54:54;7.30;;;5.53;;
52512;SDS011;38422;53.172;6.974;2022-08-19T08:57:31;8.02;;;5.82;;
52512;SDS011;38422;53.172;6.974;2022-08-19T09:00:04;7.40;;;6.00;;
52512;SDS011;38422;53.172;6.974;2022-08-19T09:02:33;7.80;;;7.00;;
52512;SDS011;38422;53.172;6.974;2022-08-19T09:04:59;7.80;;;5.85;;
52512;SDS011;38422;53.172;6.974;2022-08-19T09:15:52;7.80;;;5.78;;
52512;SDS011;38422;53.172;6.974;2022-08-19T09:18:26;9.98;;;5.28;;
52512;SDS011;38422;53.172;6.974;2022-08-19T09:21:07;7.05;;;5.40;;
52512;SDS011;38422;53.172;6.974;2022-08-19T09:23:34;8.77;;;6.13;;
52512;SDS011;38422;53.172;6.974;2022-08-19T09:26:00;6.82;;;5.45;;
52512;SDS011;38422;53.172;6.974;2022-08-19T09:28:26;6.38;;;5.53;;
52512;SDS011;38422;53.172;6.974;2022-08-19T09:30:52;6.80;;;5.22;;
52512;SDS011;38422;53.172;6.974;2022-08-19T09:33:18;8.65;;;5.70;;
52512;SDS011;38422;53.172;6.974;2022-08-19T09:35:44;6.78;;;5.45;;
52512;SDS011;38422;53.172;6.974;2022-08-19T09:38:11;6.45;;;5.03;;
52512;SDS011;38422;53.172;6.974;2022-08-19T09:40:36;5.72;;;4.57;;
52512;SDS011;38422;53.172;6.974;2022-08-19T09:45:30;5.28;;;4.40;;
52512;SDS011;38422;53.172;6.974;2022-08-19T09:47:56;6.65;;;4.45;;
52512;SDS011;38422;53.172;6.974;2022-08-19T09:50:22;4.93;;;3.70;;
52512;SDS011;38422;53.172;6.974;2022-08-19T09:52:49;6.15;;;4.18;;
52512;SDS011;38422;53.172;6.974;2022-08-19T09:55:17;5.38;;;3.20;;
52512;SDS011;38422;53.172;6.974;2022-08-19T09:57:42;3.13;;;2.00;;
52512;SDS011;38422;53.172;6.974;2022-08-19T10:00:08;4.47;;;2.20;;
52512;SDS011;38422;53.172;6.974;2022-08-19T10:02:35;3.55;;;2.17;;
52512;SDS011;38422;53.172;6.974;2022-08-19T10:05:01;4.93;;;2.60;;
52512;SDS011;38422;53.172;6.974;2022-08-19T10:07:45;3.33;;;2.50;;
52512;SDS011;38422;53.172;6.974;2022-08-19T10:10:11;3.67;;;2.30;;
52512;SDS011;38422;53.172;6.974;2022-08-19T10:12:37;3.00;;;2.30;;
52512;SDS011;38422;53.172;6.974;2022-08-19T10:15:04;4.00;;;2.40;;
52512;SDS011;38422;53.172;6.974;2022-08-19T10:17:31;3.00;;;2.00;;
52512;SDS011;38422;53.172;6.974;2022-08-19T10:19:58;4.70;;;2.00;;
52512;SDS011;38422;53.172;6.974;2022-08-19T10:22:24;3.20;;;2.00;;
52512;SDS011;38422;53.172;6.974;2022-08-19T10:24:50;4.00;;;2.20;;
52512;SDS011;38422;53.172;6.974;2022-08-19T10:29:42;3.95;;;2.33;;
52512;SDS011;38422;53.172;6.974;2022-08-19T10:32:08;2.70;;;1.80;;
52512;SDS011;38422;53.172;6.974;2022-08-19T10:34:36;2.72;;;1.60;;
52512;SDS011;38422;53.172;6.974;2022-08-19T10:37:03;2.55;;;1.60;;
52512;SDS011;38422;53.172;6.974;2022-08-19T10:39:31;1.98;;;1.42;;
52512;SDS011;38422;53.172;6.974;2022-08-19T10:41:58;2.00;;;1.52;;
52512;SDS011;38422;53.172;6.974;2022-08-19T10:44:24;2.60;;;1.75;;
52512;SDS011;38422;53.172;6.974;2022-08-19T10:46:50;2.22;;;1.40;;
52512;SDS011;38422;53.172;6.974;2022-08-19T10:49:17;2.42;;;1.50;;
52512;SDS011;38422;53.172;6.974;2022-08-19T10:51:44;3.05;;;1.80;;
52512;SDS011;38422;53.172;6.974;2022-08-19T10:54:28;2.95;;;1.40;;
52512;SDS011;38422;53.172;6.974;2022-08-19T10:57:12;2.97;;;1.70;;
52512;SDS011;38422;53.172;6.974;2022-08-19T10:59:38;4.10;;;1.65;;
52512;SDS011;38422;53.172;6.974;2022-08-19T11:02:05;2.40;;;1.80;;
52512;SDS011;38422;53.172;6.974;2022-08-19T11:04:35;3.60;;;1.90;;
52512;SDS011;38422;53.172;6.974;2022-08-19T11:07:01;3.30;;;1.73;;
52512;SDS011;38422;53.172;6.974;2022-08-19T11:09:28;4.10;;;1.80;;
52512;SDS011;38422;53.172;6.974;2022-08-19T11:11:55;4.07;;;2.40;;
52512;SDS011;38422;53.172;6.974;2022-08-19T11:14:21;2.40;;;2.05;;
52512;SDS011;38422;53.172;6.974;2022-08-19T11:16:49;3.92;;;2.40;;
52512;SDS011;38422;53.172;6.974;2022-08-19T11:19:16;3.97;;;2.30;;
52512;SDS011;38422;53.172;6.974;2022-08-19T11:21:45;3.70;;;2.28;;
52512;SDS011;38422;53.172;6.974;2022-08-19T11:24:14;4.80;;;2.40;;
52512;SDS011;38422;53.172;6.974;2022-08-19T11:26:42;3.22;;;2.25;;
52512;SDS011;38422;53.172;6.974;2022-08-19T11:29:10;5.07;;;2.58;;
52512;SDS011;38422;53.172;6.974;2022-08-19T11:31:39;3.22;;;2.35;;
52512;SDS011;38422;53.172;6.974;2022-08-19T11:34:08;3.75;;;2.30;;
52512;SDS011;38422;53.172;6.974;2022-08-19T11:36:38;3.45;;;2.15;;
52512;SDS011;38422;53.172;6.974;2022-08-19T11:39:06;3.30;;;2.33;;
52512;SDS011;38422;53.172;6.974;2022-08-19T11:41:32;3.05;;;2.10;;
52512;SDS011;38422;53.172;6.974;2022-08-19T11:43:58;4.80;;;2.80;;
52512;SDS011;38422;53.172;6.974;2022-08-19T11:46:25;3.73;;;2.27;;
52512;SDS011;38422;53.172;6.974;2022-08-19T11:48:54;3.05;;;1.95;;
52512;SDS011;38422;53.172;6.974;2022-08-19T11:51:22;3.75;;;2.20;;
52512;SDS011;38422;53.172;6.974;2022-08-19T11:57:30;3.15;;;2.45;;
52512;SDS011;38422;53.172;6.974;2022-08-19T11:59:56;6.05;;;2.90;;
52512;SDS011;38422;53.172;6.974;2022-08-19T12:02:22;4.27;;;3.00;;
52512;SDS011;38422;53.172;6.974;2022-08-19T12:04:48;4.38;;;3.13;;
52512;SDS011;38422;53.172;6.974;2022-08-19T12:07:14;4.32;;;3.05;;
52512;SDS011;38422;53.172;6.974;2022-08-19T12:09:40;4.03;;;2.80;;
52512;SDS011;38422;53.172;6.974;2022-08-19T12:12:06;3.75;;;2.95;;
52512;SDS011;38422;53.172;6.974;2022-08-19T12:14:32;4.53;;;3.20;;
52512;SDS011;38422;53.172;6.974;2022-08-19T12:16:57;4.30;;;2.80;;
52512;SDS011;38422;53.172;6.974;2022-08-19T12:19:23;3.47;;;2.77;;
52512;SDS011;38422;53.172;6.974;2022-08-19T12:21:50;3.90;;;2.88;;
52512;SDS011;38422;53.172;6.974;2022-08-19T12:24:18;4.43;;;3.17;;
52512;SDS011;38422;53.172;6.974;2022-08-19T12:26:48;3.28;;;2.80;;
52512;SDS011;38422;53.172;6.974;2022-08-19T12:29:14;4.07;;;2.90;;
52512;SDS011;38422;53.172;6.974;2022-08-19T12:31:39;4.83;;;2.43;;
52512;SDS011;38422;53.172;6.974;2022-08-19T12:34:05;4.20;;;2.95;;
52512;SDS011;38422;53.172;6.974;2022-08-19T12:36:31;4.73;;;3.20;;
52512;SDS011;38422;53.172;6.974;2022-08-19T12:38:57;4.00;;;3.00;;
52512;SDS011;38422;53.172;6.974;2022-08-19T12:41:24;5.00;;;3.20;;
52512;SDS011;38422;53.172;6.974;2022-08-19T12:43:50;4.17;;;3.00;;
52512;SDS011;38422;53.172;6.974;2022-08-19T12:46:16;5.00;;;3.33;;
52512;SDS011;38422;53.172;6.974;2022-08-19T12:48:43;4.43;;;3.25;;
52512;SDS011;38422;53.172;6.974;2022-08-19T12:51:10;5.20;;;3.25;;
52512;SDS011;38422;53.172;6.974;2022-08-19T12:53:39;4.05;;;3.55;;
52512;SDS011;38422;53.172;6.974;2022-08-19T12:56:06;4.80;;;3.90;;
52512;SDS011;38422;53.172;6.974;2022-08-19T12:58:32;4.60;;;3.72;;
52512;SDS011;38422;53.172;6.974;2022-08-19T13:00:59;4.32;;;2.95;;
52512;SDS011;38422;53.172;6.974;2022-08-19T13:03:31;4.43;;;2.90;;
52512;SDS011;38422;53.172;6.974;2022-08-19T13:05:56;8.83;;;3.70;;
52512;SDS011;38422;53.172;6.974;2022-08-19T13:08:22;5.00;;;3.40;;
52512;SDS011;38422;53.172;6.974;2022-08-19T13:10:47;3.97;;;3.30;;
52512;SDS011;38422;53.172;6.974;2022-08-19T13:13:13;4.07;;;3.67;;
52512;SDS011;38422;53.172;6.974;2022-08-19T13:15:40;5.97;;;3.83;;
52512;SDS011;38422;53.172;6.974;2022-08-19T13:18:07;5.00;;;2.85;;
52512;SDS011;38422;53.172;6.974;2022-08-19T13:20:35;4.50;;;3.25;;
52512;SDS011;38422;53.172;6.974;2022-08-19T13:23:02;4.32;;;3.40;;
52512;SDS011;38422;53.172;6.974;2022-08-19T13:25:29;3.72;;;3.17;;
52512;SDS011;38422;53.172;6.974;2022-08-19T13:27:55;4.40;;;3.47;;
52512;SDS011;38422;53.172;6.974;2022-08-19T13:30:21;5.32;;;4.78;;
52512;SDS011;38422;53.172;6.974;2022-08-19T13:33:05;5.93;;;4.20;;
52512;SDS011;38422;53.172;6.974;2022-08-19T13:35:53;5.38;;;4.20;;
52512;SDS011;38422;53.172;6.974;2022-08-19T13:38:23;5.88;;;3.92;;
52512;SDS011;38422;53.172;6.974;2022-08-19T13:40:50;4.90;;;4.40;;
52512;SDS011;38422;53.172;6.974;2022-08-19T13:43:17;5.05;;;4.25;;
52512;SDS011;38422;53.172;6.974;2022-08-19T13:45:45;5.25;;;3.92;;
52512;SDS011;38422;53.172;6.974;2022-08-19T13:48:10;6.10;;;4.85;;
52512;SDS011;38422;53.172;6.974;2022-08-19T13:50:41;5.70;;;4.65;;
52512;SDS011;38422;53.172;6.974;2022-08-19T13:53:09;5.22;;;4.45;;
52512;SDS011;38422;53.172;6.974;2022-08-19T13:55:39;5.72;;;4.30;;
52512;SDS011;38422;53.172;6.974;2022-08-19T13:58:06;5.75;;;4.35;;
52512;SDS011;38422;53.172;6.974;2022-08-19T14:00:36;5.93;;;4.75;;
52512;SDS011;38422;53.172;6.974;2022-08-19T14:03:06;6.63;;;4.72;;
52512;SDS011;38422;53.172;6.974;2022-08-19T14:05:32;5.20;;;4.33;;
52512;SDS011;38422;53.172;6.974;2022-08-19T14:07:58;4.10;;;3.67;;
52512;SDS011;38422;53.172;6.974;2022-08-19T14:10:25;6.13;;;4.03;;
52512;SDS011;38422;53.172;6.974;2022-08-19T14:12:55;4.93;;;4.10;;
52512;SDS011;38422;53.172;6.974;2022-08-19T14:15:23;6.38;;;4.50;;
52512;SDS011;38422;53.172;6.974;2022-08-19T14:17:49;4.70;;;3.50;;
52512;SDS011;38422;53.172;6.974;2022-08-19T14:20:15;4.00;;;3.45;;
52512;SDS011;38422;53.172;6.974;2022-08-19T14:22:41;8.88;;;7.45;;
52512;SDS011;38422;53.172;6.974;2022-08-19T14:25:09;10.15;;;6.70;;
52512;SDS011;38422;53.172;6.974;2022-08-19T14:27:37;9.95;;;7.47;;
52512;SDS011;38422;53.172;6.974;2022-08-19T14:30:06;10.63;;;8.15;;
52512;SDS011;38422;53.172;6.974;2022-08-19T14:32:34;9.13;;;7.47;;
52512;SDS011;38422;53.172;6.974;2022-08-19T14:35:00;10.82;;;7.72;;
52512;SDS011;38422;53.172;6.974;2022-08-19T14:39:52;9.70;;;7.28;;
52512;SDS011;38422;53.172;6.974;2022-08-19T14:42:18;9.27;;;7.53;;
52512;SDS011;38422;53.172;6.974;2022-08-19T14:44:44;10.70;;;8.15;;
52512;SDS011;38422;53.172;6.974;2022-08-19T14:47:09;11.13;;;8.07;;
52512;SDS011;38422;53.172;6.974;2022-08-19T14:49:35;9.33;;;8.33;;
52512;SDS011;38422;53.172;6.974;2022-08-19T14:52:01;10.85;;;8.60;;
52512;SDS011;38422;53.172;6.974;2022-08-19T14:54:28;9.85;;;8.15;;
52512;SDS011;38422;53.172;6.974;2022-08-19T14:56:55;10.63;;;7.85;;
52512;SDS011;38422;53.172;6.974;2022-08-19T14:59:21;10.30;;;8.30;;
52512;SDS011;38422;53.172;6.974;2022-08-19T15:01:47;10.43;;;8.38;;
52512;SDS011;38422;53.172;6.974;2022-08-19T15:04:12;9.50;;;7.63;;
52512;SDS011;38422;53.172;6.974;2022-08-19T15:06:38;8.93;;;7.23;;
52512;SDS011;38422;53.172;6.974;2022-08-19T15:09:04;10.38;;;7.55;;
52512;SDS011;38422;53.172;6.974;2022-08-19T15:11:30;8.35;;;6.47;;
52512;SDS011;38422;53.172;6.974;2022-08-19T15:16:23;9.57;;;7.68;;
52512;SDS011;38422;53.172;6.974;2022-08-19T15:18:51;9.23;;;7.03;;
52512;SDS011;38422;53.172;6.974;2022-08-19T15:21:19;8.00;;;7.03;;
52512;SDS011;38422;53.172;6.974;2022-08-19T15:23:45;9.13;;;6.07;;
52512;SDS011;38422;53.172;6.974;2022-08-19T15:26:13;8.18;;;6.75;;
52512;SDS011;38422;53.172;6.974;2022-08-19T15:28:40;9.43;;;7.68;;
52512;SDS011;38422;53.172;6.974;2022-08-19T15:31:07;8.13;;;7.32;;
52512;SDS011;38422;53.172;6.974;2022-08-19T15:33:33;10.13;;;9.10;;
52512;SDS011;38422;53.172;6.974;2022-08-19T15:36:05;9.48;;;8.48;;